KASH

Boire Field Airport

Nashua, New Hampshire, USA
METAR KASH 131056Z AUTO 29003KT 10SM CLR M11/M13 A3048 RMK AO2 SLP332 T11111133 FZRANO $
Observed Flight Rules
Dec-13 @ 10:56 UTC (38 minutes ago) Visual Flight Rules
Wind Visibility Clouds
290° at 3 knots 10 miles
  • Clear skies
Temperatures Readings
Current -11°C / 12°F
Dewpoint -13°C / 9°F
Humidity 85%
Altimeter 30.48" Hg
Pressure 1033.2 hPa
Elevation 61
METAR KASH 131056Z AUTO 29003KT 10SM CLR M11/M13 A3048 RMK AO2 SLP332 T11111133 FZRANO $
Observed Flight Rules
Dec-13 @ 10:56 UTC
(38 minutes ago)
VFR
Wind Visibility
290° at 3 knots 10 miles
Clouds
  • Clear skies
Temperature Dewpoint
-11°C / 12°F -13°C / 9°F
Humidity Altimeter Pressure
85% 30.48" Hg 1033.2 hPa